createdAt,value
2023-04-08T00:01:17.063Z,4.79
2023-04-08T00:03:44.302Z,4.79
2023-04-08T00:06:22.346Z,4.79
2023-04-08T00:08:52.016Z,4.79
2023-04-08T00:11:24.522Z,4.78
2023-04-08T00:14:01.581Z,4.77
2023-04-08T00:16:29.121Z,4.78
2023-04-08T00:18:56.807Z,4.77
2023-04-08T00:21:24.268Z,4.77
2023-04-08T00:23:51.899Z,4.78
2023-04-08T00:26:18.977Z,4.79
2023-04-08T00:28:46.944Z,4.77
2023-04-08T00:31:14.471Z,4.77
2023-04-08T00:33:41.699Z,4.79
2023-04-08T00:36:11.359Z,4.78
2023-04-08T00:38:58.855Z,4.77
2023-04-08T00:41:29.114Z,4.76
2023-04-08T00:43:56.978Z,4.76
2023-04-08T00:46:44.816Z,4.76
2023-04-08T00:49:15.801Z,4.76
2023-04-08T00:51:52.938Z,4.76
2023-04-08T00:54:29.305Z,4.75
2023-04-08T00:57:00.258Z,4.74
2023-04-08T00:59:38.874Z,4.73
2023-04-08T01:02:35.720Z,4.74
2023-04-08T01:05:07.900Z,4.74
2023-04-08T01:07:48.705Z,4.74
2023-04-08T01:10:22.664Z,4.74
2023-04-08T01:13:10.709Z,4.74
2023-04-08T01:15:51.761Z,4.72
2023-04-08T01:18:30.802Z,4.69
2023-04-08T01:21:03.200Z,4.67
2023-04-08T01:23:43.833Z,4.65
2023-04-08T01:26:11.469Z,4.65
2023-04-08T01:28:44.040Z,4.63
2023-04-08T01:31:14.560Z,4.61
2023-04-08T01:33:42.582Z,4.58
2023-04-08T01:36:14.138Z,4.52
2023-04-08T01:39:05.929Z,4.47
2023-04-08T01:42:40.046Z,4.43
2023-04-08T01:45:13.384Z,4.39
2023-04-08T01:47:45.019Z,4.36
2023-04-08T01:50:17.202Z,4.34
2023-04-08T01:52:56.006Z,4.32
2023-04-08T01:55:29.178Z,4.30
2023-04-08T01:58:02.881Z,4.28
2023-04-08T02:00:45.587Z,4.25
2023-04-08T02:03:16.048Z,4.22
2023-04-08T02:05:46.484Z,4.21
2023-04-08T02:08:14.674Z,4.21
2023-04-08T02:10:43.767Z,4.18
2023-04-08T02:13:11.233Z,4.14
2023-04-08T02:15:44.280Z,4.14
2023-04-08T02:18:17.813Z,4.12
2023-04-08T02:20:52.257Z,4.10
2023-04-08T02:23:26.324Z,4.07
2023-04-08T02:25:58.897Z,4.05
2023-04-08T02:28:30.172Z,4.03
2023-04-08T02:30:59.196Z,4.01
2023-04-08T02:33:29.900Z,4.00
2023-04-08T02:36:00.947Z,3.99
2023-04-08T02:38:52.044Z,3.97
2023-04-08T02:41:19.449Z,3.94
2023-04-08T02:43:49.625Z,3.92
2023-04-08T02:46:16.646Z,3.90
2023-04-08T02:48:43.697Z,3.87
2023-04-08T02:51:14.263Z,3.87
2023-04-08T02:53:41.666Z,3.86
2023-04-08T02:56:19.203Z,3.86
2023-04-08T02:58:46.460Z,3.84
2023-04-08T03:01:13.471Z,3.84
2023-04-08T03:03:40.930Z,3.82
2023-04-08T03:06:08.356Z,3.79
2023-04-08T03:08:40.407Z,3.77
2023-04-08T03:11:10.519Z,3.75
2023-04-08T03:13:37.556Z,3.72
2023-04-08T03:16:08.891Z,3.70
2023-04-08T03:18:47.098Z,3.65
2023-04-08T03:21:26.889Z,3.61
2023-04-08T03:24:14.302Z,3.57
2023-04-08T03:26:44.020Z,3.51
2023-04-08T03:29:11.633Z,3.47
2023-04-08T03:31:41.330Z,3.44
2023-04-08T03:34:11.348Z,3.41
2023-04-08T03:36:42.755Z,3.38
2023-04-08T03:39:10.562Z,3.34
2023-04-08T03:41:37.807Z,3.32
2023-04-08T03:44:07.678Z,3.29
2023-04-08T03:46:38.172Z,3.25
2023-04-08T03:49:07.834Z,3.22
2023-04-08T03:51:34.853Z,3.18
2023-04-08T03:54:11.436Z,3.15
2023-04-08T03:56:41.432Z,3.13
2023-04-08T03:59:13.619Z,3.12
2023-04-08T04:02:00.778Z,3.09
2023-04-08T04:04:48.908Z,3.09
2023-04-08T04:07:21.277Z,3.09
2023-04-08T04:09:56.271Z,3.07
2023-04-08T04:12:37.142Z,3.07
2023-04-08T04:15:04.519Z,3.07
2023-04-08T04:17:31.589Z,3.09
2023-04-08T04:19:58.722Z,3.11
2023-04-08T04:22:44.508Z,3.14
2023-04-08T04:25:14.766Z,3.43
2023-04-08T04:27:46.460Z,3.89
2023-04-08T04:30:31.977Z,4.47
2023-04-08T04:33:08.820Z,5.05
2023-04-08T04:35:46.147Z,5.77
2023-04-08T04:38:33.564Z,6.71
2023-04-08T04:41:03.036Z,7.65
2023-04-08T04:43:30.302Z,8.64
2023-04-08T04:45:58.000Z,9.65
2023-04-08T04:48:34.542Z,10.71
2023-04-08T04:51:03.525Z,11.60
2023-04-08T04:53:30.883Z,12.41
2023-04-08T04:55:58.252Z,13.19
2023-04-08T04:58:25.688Z,13.98
2023-04-08T05:00:52.519Z,14.75
2023-04-08T05:03:19.884Z,15.53
2023-04-08T05:05:46.948Z,16.32
2023-04-08T05:08:13.986Z,17.09
2023-04-08T05:10:43.501Z,17.86
2023-04-08T05:13:10.746Z,18.62
2023-04-08T05:15:37.599Z,19.34
2023-04-08T05:18:04.633Z,19.97
2023-04-08T05:20:32.287Z,20.79
2023-04-08T05:22:59.353Z,21.49
2023-04-08T05:25:26.409Z,22.15
2023-04-08T05:27:54.115Z,22.68
2023-04-08T05:30:21.246Z,23.17
2023-04-08T05:32:48.228Z,23.71
2023-04-08T05:35:15.190Z,24.14
2023-04-08T05:37:42.028Z,24.63
2023-04-08T05:40:10.822Z,25.20
2023-04-08T05:42:37.799Z,25.78
2023-04-08T05:45:05.252Z,26.26
2023-04-08T05:47:32.574Z,26.67
2023-04-08T05:49:59.879Z,26.97
2023-04-08T05:52:26.667Z,27.46
2023-04-08T05:54:54.185Z,27.85
2023-04-08T05:57:21.461Z,28.23
2023-04-08T05:59:48.469Z,28.76
2023-04-08T06:02:15.772Z,29.23
2023-04-08T06:04:43.221Z,29.48
2023-04-08T06:07:10.311Z,29.64
2023-04-08T06:09:39.089Z,29.97
2023-04-08T06:12:06.840Z,30.26
2023-04-08T06:14:33.676Z,30.32
2023-04-08T06:17:00.664Z,30.34
2023-04-08T06:19:27.789Z,30.57
2023-04-08T06:21:58.949Z,30.74
2023-04-08T06:24:26.699Z,30.84
2023-04-08T06:26:54.289Z,30.93
2023-04-08T06:29:21.243Z,31.01
2023-04-08T06:31:48.699Z,30.92
2023-04-08T06:34:15.763Z,30.59
2023-04-08T06:36:42.957Z,30.30
2023-04-08T06:39:10.334Z,30.06
2023-04-08T06:41:37.775Z,29.69
2023-04-08T06:44:13.850Z,29.37
2023-04-08T06:46:41.188Z,29.19
2023-04-08T06:49:08.439Z,29.17
2023-04-08T06:51:35.594Z,29.61
2023-04-08T06:54:02.842Z,30.12
2023-04-08T06:56:29.899Z,30.58
2023-04-08T06:58:56.936Z,30.78
2023-04-08T07:01:25.763Z,30.67
2023-04-08T07:03:52.796Z,30.84
2023-04-08T07:06:19.732Z,31.21
2023-04-08T07:08:46.995Z,31.63
2023-04-08T07:11:13.918Z,31.82
2023-04-08T07:13:40.886Z,31.94
2023-04-08T07:16:08.757Z,32.11
2023-04-08T07:18:35.687Z,32.42
2023-04-08T07:21:02.470Z,32.72
2023-04-08T07:23:29.948Z,32.88
2023-04-08T07:25:56.933Z,33.07
2023-04-08T07:28:24.213Z,33.43
2023-04-08T07:30:51.150Z,33.90
2023-04-08T07:33:18.102Z,34.36
2023-04-08T07:35:44.969Z,34.64
2023-04-08T07:38:13.518Z,34.85
2023-04-08T07:40:40.367Z,35.07
2023-04-08T07:43:09.472Z,35.27
2023-04-08T07:45:36.483Z,35.34
2023-04-08T07:48:03.340Z,35.41
2023-04-08T07:50:30.433Z,35.27
2023-04-08T07:52:57.299Z,35.16
2023-04-08T07:55:24.161Z,35.08
2023-04-08T07:57:52.027Z,34.99
2023-04-08T08:00:21.913Z,34.70
2023-04-08T08:02:49.387Z,34.34
2023-04-08T08:05:16.743Z,34.15
2023-04-08T08:07:43.901Z,33.90
2023-04-08T08:10:12.708Z,33.58
2023-04-08T08:12:39.773Z,33.53
2023-04-08T08:15:07.494Z,33.55
2023-04-08T08:17:34.630Z,33.52
2023-04-08T08:20:01.765Z,33.47
2023-04-08T08:22:28.777Z,33.36
2023-04-08T08:24:59.565Z,33.31
2023-04-08T08:27:26.637Z,33.31
2023-04-08T08:29:53.825Z,33.33
2023-04-08T08:32:20.772Z,33.29
2023-04-08T08:34:47.899Z,33.31
2023-04-08T08:37:14.728Z,33.45
2023-04-08T08:39:41.593Z,33.67
2023-04-08T08:42:08.766Z,33.71
2023-04-08T08:44:36.194Z,33.63
2023-04-08T08:47:03.658Z,33.59
2023-04-08T08:49:31.752Z,33.75
2023-04-08T08:52:00.152Z,33.66
2023-04-08T08:54:27.342Z,33.44
2023-04-08T08:56:54.984Z,33.33
2023-04-08T08:59:21.947Z,33.44
2023-04-08T09:01:49.002Z,33.20
2023-04-08T09:04:19.972Z,32.88
2023-04-08T09:06:50.331Z,32.89
2023-04-08T09:09:17.889Z,32.80
2023-04-08T09:11:46.751Z,32.87
2023-04-08T09:14:24.778Z,33.12
2023-04-08T09:16:52.279Z,33.35
2023-04-08T09:19:19.365Z,33.37
2023-04-08T09:21:47.516Z,33.23
2023-04-08T09:24:30.389Z,33.30
2023-04-08T09:26:57.698Z,33.44
2023-04-08T09:29:31.116Z,33.35
2023-04-08T09:32:01.936Z,33.02
2023-04-08T09:34:32.417Z,32.83
2023-04-08T09:36:59.520Z,32.80
2023-04-08T09:39:26.747Z,32.90
2023-04-08T09:41:56.211Z,32.81
2023-04-08T09:44:26.727Z,32.70
2023-04-08T09:47:02.804Z,32.37
2023-04-08T09:49:30.073Z,31.88
2023-04-08T09:52:01.193Z,31.36
2023-04-08T09:54:36.317Z,30.76
2023-04-08T09:57:07.959Z,30.14
2023-04-08T09:59:38.832Z,29.55
2023-04-08T10:02:12.199Z,29.05
2023-04-08T10:04:43.078Z,28.88
2023-04-08T10:07:11.298Z,28.83
2023-04-08T10:09:41.610Z,28.42
2023-04-08T10:12:10.460Z,28.23
2023-04-08T10:14:37.494Z,28.32
2023-04-08T10:17:27.860Z,28.53
2023-04-08T10:19:54.829Z,28.79
2023-04-08T10:22:51.629Z,29.02
2023-04-08T10:25:35.435Z,29.36
2023-04-08T10:28:23.718Z,29.64
2023-04-08T10:30:51.572Z,29.71
2023-04-08T10:33:22.437Z,29.54
2023-04-08T10:35:54.653Z,29.30
2023-04-08T10:38:22.246Z,29.18
2023-04-08T10:40:51.430Z,29.14
2023-04-08T10:43:18.783Z,29.24
2023-04-08T10:45:51.419Z,29.35
2023-04-08T10:48:20.885Z,29.21
2023-04-08T10:50:55.588Z,29.06
2023-04-08T10:53:27.326Z,29.00
2023-04-08T10:55:55.012Z,28.84
2023-04-08T10:58:22.367Z,28.66
2023-04-08T11:00:49.521Z,28.40
2023-04-08T11:03:17.106Z,28.19
2023-04-08T11:05:44.564Z,28.05
2023-04-08T11:08:11.608Z,27.89
2023-04-08T11:10:41.442Z,27.77
2023-04-08T11:13:10.816Z,27.62
2023-04-08T11:15:38.902Z,27.40
2023-04-08T11:18:07.348Z,27.01
2023-04-08T11:20:37.244Z,26.69
2023-04-08T11:23:04.783Z,26.55
2023-04-08T11:25:32.713Z,26.47
2023-04-08T11:28:00.394Z,26.11
2023-04-08T11:30:28.365Z,25.84
2023-04-08T11:32:57.074Z,25.68
2023-04-08T11:35:24.200Z,25.59
2023-04-08T11:37:54.427Z,25.32
2023-04-08T11:40:24.824Z,24.94
2023-04-08T11:42:52.320Z,24.60
2023-04-08T11:45:21.372Z,24.37
2023-04-08T11:47:48.964Z,23.99
2023-04-08T11:50:23.762Z,23.76
2023-04-08T11:52:52.364Z,23.68
2023-04-08T11:55:27.517Z,23.51
2023-04-08T11:57:55.152Z,22.64
2023-04-08T12:00:23.198Z,21.88
2023-04-08T12:02:51.263Z,21.72
2023-04-08T12:05:18.733Z,21.51
2023-04-08T12:07:46.308Z,21.31
2023-04-08T12:10:14.667Z,21.13
2023-04-08T12:12:42.186Z,21.03
2023-04-08T12:15:11.416Z,21.03
2023-04-08T12:17:39.405Z,21.18
2023-04-08T12:20:07.776Z,21.31
2023-04-08T12:22:34.977Z,21.25
2023-04-08T12:25:03.104Z,21.11
2023-04-08T12:27:30.161Z,21.01
2023-04-08T12:29:57.663Z,20.85
2023-04-08T12:32:25.808Z,20.63
2023-04-08T12:34:52.966Z,20.29
2023-04-08T12:37:20.927Z,19.96
2023-04-08T12:39:49.546Z,19.77
2023-04-08T12:42:16.571Z,19.68
2023-04-08T12:44:44.317Z,19.68
2023-04-08T12:47:11.352Z,19.77
2023-04-08T12:52:11.254Z,19.94
2023-04-08T12:54:38.211Z,20.01
2023-04-08T12:57:05.149Z,20.00
2023-04-08T12:59:34.397Z,20.04
2023-04-08T13:02:01.473Z,19.98
2023-04-08T13:04:28.583Z,19.79
2023-04-08T13:06:55.859Z,19.71
2023-04-08T13:09:23.100Z,19.68
2023-04-08T13:11:50.348Z,19.70
2023-04-08T13:14:18.822Z,19.77
2023-04-08T13:16:46.636Z,19.87
2023-04-08T13:19:13.701Z,19.92
2023-04-08T13:21:41.148Z,19.86
2023-04-08T13:24:08.652Z,19.80
2023-04-08T13:26:35.824Z,19.87
2023-04-08T13:29:03.685Z,19.89
2023-04-08T13:31:30.911Z,19.71
2023-04-08T13:33:58.489Z,19.48
2023-04-08T13:36:26.033Z,19.26
2023-04-08T13:38:53.233Z,19.14
2023-04-08T13:41:21.260Z,19.09
2023-04-08T13:43:48.755Z,19.08
2023-04-08T13:46:15.629Z,19.01
2023-04-08T13:48:42.824Z,19.01
2023-04-08T13:51:10.420Z,19.06
2023-04-08T13:53:37.761Z,19.06
2023-04-08T13:56:04.691Z,18.98
2023-04-08T13:58:31.794Z,18.86
2023-04-08T14:00:59.056Z,18.73
2023-04-08T14:03:26.646Z,18.58
2023-04-08T14:05:53.993Z,18.38
2023-04-08T14:08:25.531Z,18.22
2023-04-08T14:10:52.778Z,18.06
2023-04-08T14:13:20.470Z,17.93
2023-04-08T14:15:48.346Z,17.84
2023-04-08T14:18:18.061Z,17.78
2023-04-08T14:20:45.184Z,17.70
2023-04-08T14:23:13.822Z,17.62
2023-04-08T14:25:41.126Z,17.60
2023-04-08T14:28:08.338Z,17.52
2023-04-08T14:30:36.354Z,17.40
2023-04-08T14:33:04.763Z,17.20
2023-04-08T14:35:32.172Z,17.03
2023-04-08T14:37:59.850Z,16.85
2023-04-08T14:40:26.913Z,16.69
2023-04-08T14:42:54.131Z,16.61
2023-04-08T14:45:21.934Z,16.52
2023-04-08T14:47:48.854Z,16.39
2023-04-08T14:50:16.412Z,16.27
2023-04-08T14:52:45.523Z,16.16
2023-04-08T14:55:13.335Z,16.04
2023-04-08T14:57:40.853Z,15.98
2023-04-08T15:00:10.243Z,15.89
2023-04-08T15:02:37.191Z,15.83
2023-04-08T15:05:05.323Z,15.73
2023-04-08T15:07:32.513Z,15.67
2023-04-08T15:09:59.721Z,15.61
2023-04-08T15:12:27.031Z,15.53
2023-04-08T15:14:54.079Z,15.52
2023-04-08T15:17:21.119Z,15.49
2023-04-08T15:19:48.050Z,15.45
2023-04-08T15:22:15.236Z,15.36
2023-04-08T15:24:42.632Z,15.28
2023-04-08T15:27:10.382Z,15.18
2023-04-08T15:29:37.475Z,15.09
2023-04-08T15:32:04.445Z,15.02
2023-04-08T15:34:31.780Z,14.94
2023-04-08T15:36:59.070Z,14.86
2023-04-08T15:39:26.332Z,14.77
2023-04-08T15:41:53.944Z,14.69
2023-04-08T15:44:21.358Z,14.61
2023-04-08T15:46:48.393Z,14.52
2023-04-08T15:49:15.712Z,14.46
2023-04-08T15:52:02.981Z,14.41
2023-04-08T15:54:31.168Z,14.35
2023-04-08T15:56:58.351Z,14.26
2023-04-08T15:59:29.591Z,14.17
2023-04-08T16:01:56.883Z,14.09
2023-04-08T16:04:24.445Z,13.98
2023-04-08T16:06:51.965Z,13.88
2023-04-08T16:09:25.492Z,13.81
2023-04-08T16:11:53.289Z,13.76
2023-04-08T16:14:20.903Z,13.70
2023-04-08T16:16:47.880Z,13.66
2023-04-08T16:19:15.232Z,13.61
2023-04-08T16:21:42.295Z,13.57
2023-04-08T16:24:09.690Z,13.53
2023-04-08T16:26:39.744Z,13.48
2023-04-08T16:29:07.626Z,13.44
2023-04-08T16:31:34.673Z,13.41
2023-04-08T16:34:01.890Z,13.39
2023-04-08T16:36:29.033Z,13.39
2023-04-08T16:38:56.183Z,13.37
2023-04-08T16:41:23.240Z,13.34
2023-04-08T16:43:50.568Z,13.28
2023-04-08T16:46:18.874Z,13.24
2023-04-08T16:48:46.734Z,13.19
2023-04-08T16:51:14.291Z,13.14
2023-04-08T16:53:44.409Z,13.09
2023-04-08T16:56:17.766Z,13.05
2023-04-08T16:58:44.966Z,13.01
2023-04-08T17:04:24.418Z,12.98
2023-04-08T17:06:48.510Z,12.96
2023-04-08T17:09:12.162Z,12.94
2023-04-08T17:11:36.251Z,12.91
2023-04-08T17:14:00.389Z,12.89
2023-04-08T17:16:23.926Z,12.86
2023-04-08T17:18:47.890Z,12.83
2023-04-08T17:21:11.693Z,12.78
2023-04-08T17:23:35.852Z,12.74
2023-04-08T17:25:59.890Z,12.70
2023-04-08T17:28:23.355Z,12.69
2023-04-08T17:30:47.438Z,12.66
2023-04-08T17:33:11.310Z,12.65
2023-04-08T17:35:34.663Z,12.64
2023-04-08T17:37:58.198Z,12.62
2023-04-08T17:40:21.916Z,12.59
2023-04-08T17:42:46.034Z,12.56
2023-04-08T17:45:10.980Z,12.51
2023-04-08T17:47:34.804Z,12.48
2023-04-08T17:49:58.217Z,12.47
2023-04-08T17:52:21.672Z,12.45
2023-04-08T17:54:45.362Z,12.41
2023-04-08T17:57:09.044Z,12.39
2023-04-08T17:59:33.399Z,12.36
2023-04-08T18:01:57.195Z,12.33
2023-04-08T18:04:21.032Z,12.28
2023-04-08T18:06:45.126Z,12.25
2023-04-08T18:09:08.823Z,12.22
2023-04-08T18:11:32.205Z,12.21
2023-04-08T18:13:55.931Z,12.18
2023-04-08T18:16:21.179Z,12.13
2023-04-08T18:18:52.264Z,12.07
2023-04-08T18:21:18.405Z,11.99
2023-04-08T18:23:42.396Z,11.93
2023-04-08T18:26:10.127Z,11.85
2023-04-08T18:28:34.259Z,11.79
2023-04-08T18:30:58.373Z,11.73
2023-04-08T18:33:22.243Z,11.66
2023-04-08T18:35:46.481Z,11.58
2023-04-08T18:38:10.804Z,11.49
2023-04-08T18:40:34.815Z,11.41
2023-04-08T18:43:01.368Z,11.33
2023-04-08T18:45:29.271Z,11.23
2023-04-08T18:47:52.942Z,11.11
2023-04-08T18:50:16.916Z,11.03
2023-04-08T18:52:40.502Z,10.94
2023-04-08T18:55:07.424Z,10.85
2023-04-08T18:57:30.949Z,10.79
2023-04-08T18:59:59.257Z,10.74
2023-04-08T19:02:26.062Z,10.68
2023-04-08T19:05:10.749Z,10.62
2023-04-08T19:07:34.411Z,10.58
2023-04-08T19:09:57.867Z,10.53
2023-04-08T19:12:21.627Z,10.49
2023-04-08T19:14:45.334Z,10.43
2023-04-08T19:17:10.395Z,10.39
2023-04-08T19:19:34.165Z,10.34
2023-04-08T19:21:57.778Z,10.31
2023-04-08T19:24:21.241Z,10.28
2023-04-08T19:26:45.260Z,10.24
2023-04-08T19:29:09.131Z,10.18
2023-04-08T19:31:32.604Z,10.15
2023-04-08T19:33:56.642Z,10.16
2023-04-08T19:36:20.360Z,10.16
2023-04-08T19:38:43.872Z,10.14
2023-04-08T19:41:08.022Z,10.14
2023-04-08T19:43:31.417Z,10.15
2023-04-08T19:45:54.962Z,10.15
2023-04-08T19:48:20.168Z,10.15
2023-04-08T19:50:45.789Z,10.13
2023-04-08T19:53:09.197Z,10.12
2023-04-08T19:55:35.405Z,10.11
2023-04-08T19:58:01.618Z,10.09
2023-04-08T20:00:27.511Z,10.06
2023-04-08T20:03:13.114Z,10.06
2023-04-08T20:05:36.816Z,10.08
2023-04-08T20:08:00.305Z,10.09
2023-04-08T20:10:27.078Z,10.09
2023-04-08T20:12:51.885Z,10.09
2023-04-08T20:15:24.186Z,10.09
2023-04-08T20:17:52.429Z,10.06
2023-04-08T20:20:19.373Z,10.05
2023-04-08T20:22:46.273Z,10.03
2023-04-08T20:25:10.211Z,10.01
2023-04-08T20:27:35.220Z,10.00
2023-04-08T20:29:58.634Z,9.97
2023-04-08T20:32:22.811Z,9.95
2023-04-08T20:34:46.471Z,9.94
2023-04-08T20:37:10.010Z,9.92
2023-04-08T20:39:33.502Z,9.90
2023-04-08T20:41:58.440Z,9.88
2023-04-08T20:44:22.070Z,9.85
2023-04-08T20:46:47.512Z,9.82
2023-04-08T20:49:13.100Z,9.81
2023-04-08T20:51:36.768Z,9.81
2023-04-08T20:54:00.557Z,9.79
2023-04-08T20:56:23.996Z,9.77
2023-04-08T20:59:00.311Z,9.76
2023-04-08T21:01:25.427Z,9.73
2023-04-08T21:03:49.137Z,9.68
2023-04-08T21:06:17.080Z,9.65
2023-04-08T21:08:43.399Z,9.64
2023-04-08T21:11:07.053Z,9.63
2023-04-08T21:13:30.567Z,9.60
2023-04-08T21:15:54.222Z,9.59
2023-04-08T21:18:17.730Z,9.58
2023-04-08T21:20:41.470Z,9.57
2023-04-08T21:23:06.638Z,9.56
2023-04-08T21:25:31.984Z,9.55
2023-04-08T21:27:55.971Z,9.54
2023-04-08T21:30:22.356Z,9.53
2023-04-08T21:32:45.746Z,9.51
2023-04-08T21:35:10.295Z,9.49
2023-04-08T21:37:34.863Z,9.49
2023-04-08T21:40:01.515Z,9.47
2023-04-08T21:42:25.696Z,9.44
2023-04-08T21:44:49.684Z,9.43
2023-04-08T21:47:13.107Z,9.43
2023-04-08T21:49:36.860Z,9.43
2023-04-08T21:52:00.983Z,9.43
2023-04-08T21:54:24.534Z,9.43
2023-04-08T21:57:08.501Z,9.38
2023-04-08T21:59:34.967Z,9.35
2023-04-08T22:02:01.656Z,9.32
2023-04-08T22:04:46.759Z,9.31
2023-04-08T22:07:13.006Z,9.30
2023-04-08T22:09:36.744Z,9.30
2023-04-08T22:12:03.788Z,9.30
2023-04-08T22:14:27.441Z,9.29
2023-04-08T22:16:51.160Z,9.28
2023-04-08T22:19:15.007Z,9.27
2023-04-08T22:21:38.450Z,9.27
2023-04-08T22:24:02.083Z,9.26
2023-04-08T22:26:26.464Z,9.25
2023-04-08T22:28:50.277Z,9.24
2023-04-08T22:31:13.853Z,9.23
2023-04-08T22:33:38.237Z,9.23
2023-04-08T22:36:09.167Z,9.20
2023-04-08T22:38:32.902Z,9.16
2023-04-08T22:40:57.185Z,9.13
2023-04-08T22:43:21.203Z,9.09
2023-04-08T22:45:44.615Z,9.07
2023-04-08T22:48:08.414Z,9.06
2023-04-08T22:50:32.789Z,9.05
2023-04-08T22:52:56.273Z,9.04
2023-04-08T22:55:20.764Z,9.02
2023-04-08T22:57:44.199Z,9.01
2023-04-08T23:00:09.917Z,9.00
2023-04-08T23:02:34.540Z,8.98
2023-04-08T23:04:58.190Z,8.96
2023-04-08T23:07:21.738Z,8.95
2023-04-08T23:09:46.226Z,8.96
2023-04-08T23:12:09.694Z,8.95
2023-04-08T23:14:33.256Z,8.94
2023-04-08T23:17:08.205Z,8.93
2023-04-08T23:19:31.750Z,8.92
2023-04-08T23:21:55.495Z,8.92
2023-04-08T23:24:19.875Z,8.92
2023-04-08T23:26:43.924Z,8.91
2023-04-08T23:29:07.262Z,8.91
2023-04-08T23:31:31.927Z,8.91
2023-04-08T23:33:55.578Z,8.90
2023-04-08T23:36:19.032Z,8.88
2023-04-08T23:38:45.013Z,8.87
2023-04-08T23:41:09.004Z,8.89
2023-04-08T23:43:32.954Z,8.89
2023-04-08T23:45:58.464Z,8.90
2023-04-08T23:48:21.937Z,8.89
2023-04-08T23:50:49.789Z,8.90
2023-04-08T23:53:21.853Z,8.91
2023-04-08T23:56:06.624Z,8.89
2023-04-08T23:58:30.533Z,8.89
